Time;durP1;ratioP1;P1;durP2;ratioP2;P2;SDS_P1;SDS_P2;PMS_P1;PMS_P2;Temp;Humidity;BMP_temperature;BMP_pressure;BME280_temperature;BME280_humidity;BME280_pressure;Samples;Min_cycle;Max_cycle;Signal;HPM_P1;HPM_P2
2023/05/29 00:02:16;;;;;;;6.20;3.22;;;;;;;19.60;45.78;102169.66;6192688;23;20021;-64
2023/05/29 00:04:44;;;;;;;7.28;3.10;;;;;;;19.57;45.92;102170.16;6193809;23;20108;-65
2023/05/29 00:07:13;;;;;;;7.13;3.92;;;;;;;19.56;46.16;102168.50;6191745;23;20036;-66
2023/05/29 00:09:41;;;;;;;8.82;3.05;;;;;;;19.52;46.20;102170.91;6194393;23;20029;-64
2023/05/29 00:12:08;;;;;;;6.93;3.08;;;;;;;19.48;46.07;102176.00;6191594;23;20024;-65
2023/05/29 00:14:36;;;;;;;7.78;3.75;;;;;;;19.45;45.97;102173.78;6192064;23;20060;-63
2023/05/29 00:17:04;;;;;;;8.60;3.00;;;;;;;19.44;46.24;102168.56;6192927;23;20025;-65
2023/05/29 00:19:32;;;;;;;9.82;3.70;;;;;;;19.40;46.36;102170.97;6193722;23;20103;-65
2023/05/29 00:22:00;;;;;;;8.88;3.80;;;;;;;19.38;46.40;102175.84;6192402;23;20029;-65
2023/05/29 00:24:29;;;;;;;8.15;3.40;;;;;;;19.34;46.23;102173.88;6192919;23;20028;-66
2023/05/29 00:26:57;;;;;;;10.70;4.07;;;;;;;19.23;46.39;102170.16;6191257;23;20448;-65
2023/05/29 00:29:24;;;;;;;7.22;3.50;;;;;;;19.21;46.55;102166.00;6192327;23;20029;-67
2023/05/29 00:31:53;;;;;;;8.98;3.35;;;;;;;19.24;46.73;102185.44;6191239;23;20029;-63
2023/05/29 00:34:23;;;;;;;10.65;3.72;;;;;;;19.21;46.59;102182.38;6191595;23;20401;-63
2023/05/29 00:36:50;;;;;;;12.15;3.83;;;;;;;19.16;46.68;102186.66;6193212;23;20031;-67
2023/05/29 00:39:18;;;;;;;12.73;3.92;;;;;;;19.05;46.81;102181.31;6195687;23;20040;-64
2023/05/29 00:41:50;;;;;;;7.95;3.22;;;;;;;19.09;46.75;102194.16;6192335;23;20079;-65
2023/05/29 00:44:18;;;;;;;9.88;3.05;;;;;;;19.06;46.65;102197.41;6192454;23;20048;-64
2023/05/29 00:46:46;;;;;;;9.38;3.70;;;;;;;19.01;46.51;102194.59;6193066;23;20025;-65
2023/05/29 00:49:15;;;;;;;9.88;4.22;;;;;;;18.95;46.44;102189.31;6192767;23;20025;-64
2023/05/29 00:51:44;;;;;;;6.65;2.65;;;;;;;18.95;46.63;102197.47;6192172;23;20027;-65
2023/05/29 00:54:15;;;;;;;10.43;3.50;;;;;;;18.91;46.51;102194.41;6192640;23;20024;-65
2023/05/29 00:56:43;;;;;;;12.13;3.72;;;;;;;18.88;46.53;102191.34;6191517;23;20025;-65
2023/05/29 00:59:13;;;;;;;9.70;3.65;;;;;;;18.88;46.46;102200.34;6192780;23;20107;-65
2023/05/29 01:01:42;;;;;;;7.50;3.10;;;;;;;18.87;46.34;102198.69;6192465;23;20328;-64
2023/05/29 01:04:12;;;;;;;11.18;3.65;;;;;;;18.85;46.28;102198.94;6191486;23;20056;-65
2023/05/29 01:06:41;;;;;;;14.45;3.95;;;;;;;18.85;46.00;102212.56;6191370;23;20025;-65
2023/05/29 01:09:09;;;;;;;9.90;3.28;;;;;;;18.82;46.11;102210.31;6193319;23;20026;-65
2023/05/29 01:11:46;;;;;;;14.82;3.80;;;;;;;18.83;45.89;102211.16;6192340;23;20085;-65
2023/05/29 01:14:24;;;;;;;9.70;3.20;;;;;;;18.80;45.81;102217.09;6194820;23;20029;-65
2023/05/29 01:17:03;;;;;;;9.43;3.10;;;;;;;18.78;45.71;102230.13;6194210;23;20025;-64
2023/05/29 01:19:46;;;;;;;9.38;2.88;;;;;;;18.75;45.65;102226.00;6194349;23;20045;-64
2023/05/29 01:22:26;;;;;;;9.45;2.53;;;;;;;18.69;45.49;102217.97;6191135;23;20447;-64
2023/05/29 01:25:06;;;;;;;7.60;2.60;;;;;;;18.67;45.51;102220.94;6191906;23;20359;-67
2023/05/29 01:27:36;;;;;;;8.52;3.38;;;;;;;18.64;45.40;102226.84;6190338;23;20029;-65
2023/05/29 01:30:06;;;;;;;10.00;2.45;;;;;;;18.61;44.85;102221.06;6192121;23;20052;-67
2023/05/29 01:32:35;;;;;;;13.48;3.47;;;;;;;18.60;45.04;102225.66;6189885;23;20025;-67
2023/05/29 01:35:03;;;;;;;10.35;3.55;;;;;;;18.56;44.98;102219.03;6192465;23;20056;-66
2023/05/29 01:37:31;;;;;;;12.35;4.25;;;;;;;18.52;44.79;102226.03;6191370;23;20025;-67
2023/05/29 01:39:59;;;;;;;12.20;2.80;;;;;;;18.51;44.59;102229.81;6192423;23;20061;-67
2023/05/29 01:42:27;;;;;;;9.77;2.85;;;;;;;18.43;44.57;102228.31;6190971;23;20033;-67
2023/05/29 01:44:58;;;;;;;9.70;2.95;;;;;;;18.40;44.51;102228.78;6192555;23;20033;-66
2023/05/29 01:47:26;;;;;;;12.98;3.80;;;;;;;18.37;44.31;102240.16;6191640;23;20064;-66
2023/05/29 01:49:55;;;;;;;9.32;3.25;;;;;;;18.34;44.27;102229.75;6191828;23;20081;-67
2023/05/29 01:52:23;;;;;;;10.43;3.15;;;;;;;18.33;44.28;102229.97;6191561;23;20047;-66
2023/05/29 01:54:51;;;;;;;11.73;4.18;;;;;;;18.28;43.77;102227.97;6191362;23;20029;-64
2023/05/29 01:57:20;;;;;;;10.20;3.35;;;;;;;18.28;43.86;102240.75;6190421;23;20029;-67
2023/05/29 01:59:48;;;;;;;10.30;3.72;;;;;;;18.26;43.58;102237.44;6192436;23;20025;-67
2023/05/29 02:02:18;;;;;;;11.35;3.33;;;;;;;18.23;43.80;102240.66;6191983;23;20080;-67
2023/05/29 02:04:45;;;;;;;10.25;3.38;;;;;;;18.20;43.36;102233.78;6194135;23;20032;-67
2023/05/29 02:07:15;;;;;;;17.98;3.53;;;;;;;18.17;43.50;102243.25;6190047;23;20052;-67
2023/05/29 02:09:43;;;;;;;10.57;2.50;;;;;;;18.15;43.43;102236.41;6191414;23;20025;-67
2023/05/29 02:12:10;;;;;;;10.98;3.72;;;;;;;18.13;43.48;102236.63;6190841;23;20029;-66
2023/05/29 02:14:40;;;;;;;11.40;3.67;;;;;;;18.11;43.40;102227.88;6192269;23;20459;-67
2023/05/29 02:17:09;;;;;;;11.05;2.92;;;;;;;18.10;43.39;102225.41;6192120;23;20029;-67
2023/05/29 02:19:38;;;;;;;11.85;3.33;;;;;;;18.08;43.24;102227.53;6191927;23;20029;-66
2023/05/29 02:22:06;;;;;;;12.40;3.00;;;;;;;18.05;43.46;102233.44;6191377;23;20075;-67
2023/05/29 02:24:34;;;;;;;9.38;2.95;;;;;;;18.01;43.50;102235.81;6191603;23;20024;-67
2023/05/29 02:27:03;;;;;;;12.27;3.15;;;;;;;17.98;43.60;102241.72;6190145;23;20036;-67
2023/05/29 02:29:30;;;;;;;11.80;3.05;;;;;;;17.94;43.59;102235.13;6190658;23;20021;-68
2023/05/29 02:31:58;;;;;;;11.48;3.17;;;;;;;17.92;43.45;102239.97;6185817;23;20048;-66
2023/05/29 02:34:26;;;;;;;12.85;3.15;;;;;;;17.90;43.48;102239.38;6187185;23;20049;-65
2023/05/29 02:36:56;;;;;;;11.93;3.72;;;;;;;17.88;43.65;102239.59;6186043;23;20039;-66
2023/05/29 02:39:24;;;;;;;8.63;2.72;;;;;;;17.88;43.61;102238.78;6186728;23;20100;-65
2023/05/29 02:41:52;;;;;;;10.90;3.47;;;;;;;17.85;43.58;102244.69;6183604;23;20036;-66
2023/05/29 02:44:19;;;;;;;12.63;2.95;;;;;;;17.83;43.64;102250.38;6185237;23;20025;-67
2023/05/29 02:46:47;;;;;;;16.08;3.20;;;;;;;17.82;43.63;102245.16;6185497;23;20071;-65
2023/05/29 02:49:19;;;;;;;9.10;3.00;;;;;;;17.78;43.61;102252.97;6185858;23;20035;-66
2023/05/29 02:51:46;;;;;;;15.27;2.88;;;;;;;17.69;43.79;102243.50;6183657;23;20029;-66
2023/05/29 02:54:15;;;;;;;10.25;2.45;;;;;;;17.73;43.73;102252.00;6184463;23;20459;-66
2023/05/29 02:56:43;;;;;;;13.82;3.50;;;;;;;17.71;43.64;102252.25;6184399;23;20080;-67
2023/05/29 02:59:11;;;;;;;14.25;3.22;;;;;;;17.70;43.80;102252.47;6185428;23;20052;-67
2023/05/29 03:01:39;;;;;;;12.80;3.05;;;;;;;17.68;43.92;102260.03;6184538;23;20029;-67
2023/05/29 03:04:07;;;;;;;7.75;2.25;;;;;;;17.65;43.94;102260.47;6185492;23;20024;-66
2023/05/29 03:06:34;;;;;;;12.85;3.67;;;;;;;17.62;43.96;102269.94;6184793;23;20033;-66
2023/05/29 03:09:02;;;;;;;9.27;3.25;;;;;;;17.59;43.89;102273.13;6186737;23;20032;-66
2023/05/29 03:11:32;;;;;;;13.15;3.15;;;;;;;17.55;43.89;102256.44;6184819;23;20474;-68
2023/05/29 03:14:00;;;;;;;15.20;3.45;;;;;;;17.53;44.06;102261.28;6189390;23;20029;-66
2023/05/29 03:16:29;;;;;;;9.77;2.92;;;;;;;17.51;44.10;102255.25;6189972;23;20071;-67
2023/05/29 03:18:57;;;;;;;13.80;3.92;;;;;;;17.47;44.05;102254.06;6190422;23;20080;-67
2023/05/29 03:21:25;;;;;;;9.68;3.10;;;;;;;17.45;44.18;102264.34;6191409;23;20025;-65
2023/05/29 03:23:52;;;;;;;10.25;3.22;;;;;;;17.44;44.11;102253.72;6191301;23;20028;-66
2023/05/29 03:26:21;;;;;;;15.38;3.75;;;;;;;17.44;44.16;102259.97;6188418;23;20029;-66
2023/05/29 03:28:50;;;;;;;11.07;3.35;;;;;;;17.43;44.14;102266.47;6191321;23;20024;-66
2023/05/29 03:31:18;;;;;;;12.30;2.78;;;;;;;17.41;44.10;102263.16;6190258;23;20029;-66
2023/05/29 03:33:46;;;;;;;13.98;3.53;;;;;;;17.38;44.36;102260.06;6191766;23;20977;-66
2023/05/29 03:36:14;;;;;;;13.15;3.40;;;;;;;17.36;44.35;102263.03;6190731;23;20032;-66
2023/05/29 03:38:41;;;;;;;13.02;3.22;;;;;;;17.33;44.42;102258.09;6191535;23;20025;-66
2023/05/29 03:41:09;;;;;;;10.73;3.17;;;;;;;17.31;44.53;102262.94;6190648;23;20032;-66
2023/05/29 03:43:38;;;;;;;11.35;3.13;;;;;;;17.29;44.43;102265.03;6191782;23;20025;-67
2023/05/29 03:46:07;;;;;;;12.93;3.15;;;;;;;17.27;44.63;102260.91;6191336;23;20029;-66
2023/05/29 03:48:35;;;;;;;15.02;3.60;;;;;;;17.25;44.48;102261.13;6189424;23;20029;-65
2023/05/29 03:51:03;;;;;;;14.65;3.80;;;;;;;17.24;44.73;102268.47;6189479;23;20056;-66
2023/05/29 03:53:30;;;;;;;13.10;2.75;;;;;;;17.22;44.59;102272.47;6190106;23;20076;-64
2023/05/29 03:55:58;;;;;;;16.83;3.45;;;;;;;17.17;44.79;102286.75;6189754;23;20071;-66
2023/05/29 03:58:26;;;;;;;16.90;4.20;;;;;;;17.14;45.05;102281.78;6191831;23;20029;-64
2023/05/29 04:00:54;;;;;;;11.90;3.45;;;;;;;17.11;45.12;102274.09;6192361;23;20506;-66
2023/05/29 04:03:23;;;;;;;14.10;4.70;;;;;;;17.09;45.14;102278.91;6192876;23;20025;-66
2023/05/29 04:05:51;;;;;;;9.85;2.60;;;;;;;17.06;45.11;102284.81;6193524;23;20025;-66
2023/05/29 04:08:19;;;;;;;14.20;3.40;;;;;;;17.04;45.20;102288.81;6190384;23;20068;-64
2023/05/29 04:10:47;;;;;;;16.55;3.67;;;;;;;17.01;45.25;102284.66;6189984;23;20071;-66
2023/05/29 04:13:14;;;;;;;14.40;3.40;;;;;;;17.01;45.45;102286.56;6188288;23;20154;-65
2023/05/29 04:15:42;;;;;;;12.00;2.90;;;;;;;16.99;45.38;102292.22;6192077;23;20025;-67
2023/05/29 04:18:10;;;;;;;11.77;2.95;;;;;;;16.97;45.46;102293.50;6192585;23;20664;-66
2023/05/29 04:20:39;;;;;;;13.57;3.53;;;;;;;16.94;45.36;102291.25;6192789;23;20036;-67
2023/05/29 04:23:07;;;;;;;12.57;3.95;;;;;;;16.89;45.61;102298.19;6191732;23;20100;-65
2023/05/29 04:25:36;;;;;;;20.38;3.90;;;;;;;16.86;45.63;102295.94;6191020;23;20029;-66
2023/05/29 04:28:04;;;;;;;14.65;2.95;;;;;;;16.83;45.62;102311.84;6193808;23;20411;-67
2023/05/29 04:30:33;;;;;;;12.55;3.63;;;;;;;16.80;45.73;102310.41;6193370;23;20113;-66
2023/05/29 04:33:01;;;;;;;9.98;3.72;;;;;;;16.69;45.79;102297.59;6193558;23;20052;-66
2023/05/29 04:35:29;;;;;;;17.92;5.15;;;;;;;16.76;45.99;102313.81;6194999;23;20079;-64
2023/05/29 04:37:58;;;;;;;12.85;3.25;;;;;;;16.75;45.83;102304.00;6194456;23;20024;-66
2023/05/29 04:40:27;;;;;;;14.45;3.97;;;;;;;16.74;45.97;102303.19;6190801;23;20095;-63
2023/05/29 04:42:55;;;;;;;15.70;3.38;;;;;;;16.74;45.78;102299.63;6191060;23;20317;-66
2023/05/29 04:45:23;;;;;;;20.63;4.00;;;;;;;16.70;45.80;102301.16;6191154;23;20024;-65
2023/05/29 04:47:53;;;;;;;11.80;3.13;;;;;;;16.70;45.75;102306.59;6191186;23;20036;-66
2023/05/29 04:50:22;;;;;;;14.50;3.47;;;;;;;16.64;45.91;102310.16;6190567;23;20052;-66
2023/05/29 04:52:51;;;;;;;14.88;3.17;;;;;;;16.58;45.88;102306.47;6190485;23;20470;-66
2023/05/29 04:55:20;;;;;;;12.07;2.80;;;;;;;16.65;45.87;102323.53;6191414;23;20071;-64
2023/05/29 04:57:48;;;;;;;14.73;4.22;;;;;;;16.57;45.93;102302.09;6191312;23;20348;-66
2023/05/29 05:00:17;;;;;;;14.07;3.60;;;;;;;16.66;45.68;102314.34;6191684;23;20032;-66
2023/05/29 05:02:46;;;;;;;13.93;3.67;;;;;;;16.66;45.77;102313.53;6190954;23;20025;-68
2023/05/29 05:05:14;;;;;;;13.57;3.15;;;;;;;16.60;45.60;102307.91;6188126;23;20091;-66
2023/05/29 05:07:42;;;;;;;16.42;3.97;;;;;;;16.66;45.99;102322.50;6186590;23;20513;-66
2023/05/29 05:10:10;;;;;;;11.13;2.47;;;;;;;16.68;45.80;102323.09;6187114;23;20029;-66
2023/05/29 05:12:40;;;;;;;12.35;3.22;;;;;;;16.68;45.68;102320.38;6188903;23;20033;-66
2023/05/29 05:15:09;;;;;;;19.38;3.92;;;;;;;16.69;45.70;102322.03;6188074;23;20036;-66
2023/05/29 05:17:37;;;;;;;13.32;3.05;;;;;;;16.67;45.87;102326.88;6186389;23;20095;-64
2023/05/29 05:20:06;;;;;;;9.98;3.20;;;;;;;16.68;45.81;102331.25;6188455;23;20250;-66
2023/05/29 05:22:34;;;;;;;13.27;2.53;;;;;;;16.69;45.83;102329.34;6188629;23;20032;-65
2023/05/29 05:25:01;;;;;;;11.57;2.85;;;;;;;16.70;45.68;102326.41;6188941;23;20028;-64
2023/05/29 05:27:30;;;;;;;12.82;3.35;;;;;;;16.70;45.75;102331.84;6188978;23;20378;-65
2023/05/29 05:29:59;;;;;;;18.13;3.72;;;;;;;16.70;45.86;102333.72;6189317;23;20028;-67
2023/05/29 05:32:27;;;;;;;12.57;2.67;;;;;;;16.69;45.85;102329.34;6189981;23;20035;-66
2023/05/29 05:34:55;;;;;;;16.10;3.45;;;;;;;16.72;45.76;102329.72;6189856;23;20053;-64
2023/05/29 05:37:23;;;;;;;12.77;4.47;;;;;;;16.72;45.72;102327.03;6189509;23;20091;-66
2023/05/29 05:39:50;;;;;;;14.57;3.47;;;;;;;16.72;45.77;102337.88;6187828;23;20028;-63
2023/05/29 05:42:18;;;;;;;13.88;3.97;;;;;;;16.73;45.80;102336.81;6188034;23;20028;-66
2023/05/29 05:44:46;;;;;;;12.40;3.53;;;;;;;16.74;45.75;102337.66;6189569;23;20055;-65
2023/05/29 05:47:15;;;;;;;13.55;3.22;;;;;;;16.75;45.76;102336.59;6189385;23;20523;-67
2023/05/29 05:49:43;;;;;;;19.33;3.58;;;;;;;16.75;45.72;102337.44;6188599;23;20351;-66
2023/05/29 05:52:11;;;;;;;13.35;2.97;;;;;;;16.76;45.74;102349.13;6188080;23;20048;-67
2023/05/29 05:54:39;;;;;;;10.35;3.67;;;;;;;16.76;45.76;102332.81;6189145;23;20024;-66
2023/05/29 05:57:07;;;;;;;14.43;3.00;;;;;;;16.75;45.87;102329.28;6188023;23;20039;-68
2023/05/29 05:59:35;;;;;;;13.80;4.25;;;;;;;16.75;45.73;102334.72;6188151;23;20393;-65
2023/05/29 06:02:04;;;;;;;10.63;2.72;;;;;;;16.76;45.92;102340.97;6187660;23;20029;-67
2023/05/29 06:04:37;;;;;;;14.65;3.33;;;;;;;16.74;45.70;102333.06;6188203;23;20681;-63
2023/05/29 06:07:06;;;;;;;11.65;3.47;;;;;;;16.66;45.76;102313.53;6188090;23;20475;-68
2023/05/29 06:09:33;;;;;;;13.77;3.40;;;;;;;16.75;45.77;102342.84;6186480;23;20077;-66
2023/05/29 06:12:01;;;;;;;10.20;3.03;;;;;;;16.75;45.73;102340.13;6185360;23;20025;-66
2023/05/29 06:14:29;;;;;;;13.82;3.30;;;;;;;16.75;45.64;102339.31;6186954;23;20032;-65
2023/05/29 06:16:58;;;;;;;13.20;3.10;;;;;;;16.75;45.70;102334.72;6186488;23;20025;-69
2023/05/29 06:19:25;;;;;;;17.77;4.43;;;;;;;16.76;45.84;102341.78;6186989;23;20048;-67
2023/05/29 06:21:54;;;;;;;9.68;2.60;;;;;;;16.77;45.83;102338.03;6186666;23;20075;-66
2023/05/29 06:24:22;;;;;;;15.35;3.45;;;;;;;16.76;45.66;102340.97;6188003;23;20028;-65
2023/05/29 06:26:50;;;;;;;11.57;3.58;;;;;;;16.76;45.77;102355.38;6187932;23;20025;-65
2023/05/29 06:29:18;;;;;;;8.05;2.50;;;;;;;16.78;45.71;102364.13;6187636;23;20079;-66
2023/05/29 06:31:46;;;;;;;15.13;2.85;;;;;;;16.77;45.76;102362.47;6188394;23;20350;-65
2023/05/29 06:34:14;;;;;;;15.32;4.03;;;;;;;16.79;45.85;102363.06;6189316;23;20039;-65
2023/05/29 06:36:42;;;;;;;15.23;3.30;;;;;;;16.79;45.61;102365.78;6188279;23;20029;-64
2023/05/29 06:39:11;;;;;;;13.65;2.92;;;;;;;16.79;45.70;102368.50;6189358;23;20028;-64
2023/05/29 06:41:42;;;;;;;13.23;2.85;;;;;;;16.80;45.66;102370.16;6187440;23;20037;-64
2023/05/29 06:44:10;;;;;;;15.73;3.28;;;;;;;16.81;45.53;102376.41;6185988;23;20033;-63
2023/05/29 06:46:38;;;;;;;11.75;2.75;;;;;;;16.79;45.67;102363.06;6187950;23;20189;-65
2023/05/29 06:49:06;;;;;;;11.35;3.10;;;;;;;16.82;45.58;102373.47;6188658;23;20052;-64
2023/05/29 06:51:35;;;;;;;13.60;3.00;;;;;;;16.84;45.72;102375.97;6188926;23;20029;-64
2023/05/29 06:54:03;;;;;;;14.15;3.65;;;;;;;16.83;45.67;102371.59;6187093;23;20020;-65
2023/05/29 06:56:32;;;;;;;14.85;3.10;;;;;;;16.85;45.67;102375.75;6187409;23;20029;-65
2023/05/29 06:58:59;;;;;;;9.30;3.28;;;;;;;16.87;45.49;102387.22;6189125;23;20025;-65
2023/05/29 07:01:27;;;;;;;10.02;2.70;;;;;;;16.86;45.55;102373.84;6188712;23;20048;-64
2023/05/29 07:03:55;;;;;;;10.00;3.53;;;;;;;16.86;45.67;102371.13;6189130;23;20050;-63
2023/05/29 07:06:23;;;;;;;10.50;2.80;;;;;;;16.85;45.67;102373.03;6187880;23;20028;-64
2023/05/29 07:08:51;;;;;;;12.25;3.45;;;;;;;16.86;45.71;102369.25;6189610;23;20032;-63
2023/05/29 07:11:18;;;;;;;13.20;3.50;;;;;;;16.86;45.59;102373.84;6187574;23;20029;-65
2023/05/29 07:13:48;;;;;;;10.18;2.97;;;;;;;16.86;45.77;102368.44;6187187;23;20079;-64
2023/05/29 07:16:16;;;;;;;12.75;3.33;;;;;;;16.86;45.72;102371.97;6185206;23;20039;-65
2023/05/29 07:18:50;;;;;;;13.50;3.63;;;;;;;16.85;45.59;102375.75;6186918;23;20029;-63
2023/05/29 07:21:18;;;;;;;11.93;2.95;;;;;;;16.85;45.63;102375.75;6188140;23;20102;-64
2023/05/29 07:23:46;;;;;;;9.27;3.45;;;;;;;16.86;45.66;102373.84;6188895;23;20029;-64
2023/05/29 07:26:14;;;;;;;13.82;2.95;;;;;;;16.84;45.67;102370.53;6187239;23;20501;-64
2023/05/29 07:28:41;;;;;;;13.70;2.78;;;;;;;16.83;45.58;102375.13;6187180;23;20029;-64
2023/05/29 07:31:11;;;;;;;12.57;3.15;;;;;;;16.83;45.56;102383.28;6187812;23;20087;-65
2023/05/29 07:33:40;;;;;;;11.20;3.13;;;;;;;16.82;45.43;102375.38;6187475;23;20032;-64
2023/05/29 07:36:08;;;;;;;12.77;4.47;;;;;;;16.79;45.42;102383.97;6187933;23;20025;-64
2023/05/29 07:38:36;;;;;;;15.45;3.30;;;;;;;16.79;45.66;102383.97;6187915;23;20025;-64
2023/05/29 07:41:04;;;;;;;12.00;3.35;;;;;;;16.76;45.56;102376.25;6184863;23;20087;-64
2023/05/29 07:43:32;;;;;;;17.60;3.13;;;;;;;16.73;45.53;102374.84;6188077;23;20063;-64
2023/05/29 07:46:00;;;;;;;9.95;2.58;;;;;;;16.73;45.49;102382.16;6187423;23;20032;-65
2023/05/29 07:48:29;;;;;;;11.70;2.88;;;;;;;16.71;45.41;102389.69;6187535;23;20546;-64
2023/05/29 07:50:57;;;;;;;13.02;3.63;;;;;;;16.69;45.53;102381.75;6187140;23;20031;-64
2023/05/29 07:53:25;;;;;;;9.95;2.70;;;;;;;16.70;45.53;102396.16;6186421;23;20041;-64
2023/05/29 07:55:53;;;;;;;8.95;2.47;;;;;;;16.68;45.67;102398.28;6187426;23;20056;-64
2023/05/29 07:58:21;;;;;;;16.52;3.53;;;;;;;16.67;45.54;102400.16;6189066;23;20087;-64
2023/05/29 08:00:49;;;;;;;8.38;3.58;;;;;;;16.67;45.42;102396.63;6187869;23;20429;-64
2023/05/29 08:03:17;;;;;;;17.02;3.15;;;;;;;16.66;45.54;102393.06;6189814;23;20029;-64
2023/05/29 08:05:46;;;;;;;10.80;2.75;;;;;;;16.66;45.49;102389.53;6190201;23;20036;-64
2023/05/29 08:08:15;;;;;;;15.10;3.20;;;;;;;16.66;45.31;102401.22;6190909;23;20029;-64
2023/05/29 08:10:43;;;;;;;10.23;2.70;;;;;;;16.65;45.39;102401.44;6190514;23;20039;-64
2023/05/29 08:13:10;;;;;;;9.35;3.67;;;;;;;16.64;45.40;102388.91;6190110;23;20052;-65
2023/05/29 08:15:38;;;;;;;11.13;3.30;;;;;;;16.66;45.33;102386.81;6190919;23;20025;-65
2023/05/29 08:18:06;;;;;;;10.45;3.85;;;;;;;16.65;45.20;102399.56;6188165;23;20036;-64
2023/05/29 08:20:35;;;;;;;8.93;2.67;;;;;;;16.66;45.37;102398.50;6189332;23;20029;-65
2023/05/29 08:23:04;;;;;;;10.68;3.30;;;;;;;16.67;45.27;102397.44;6187358;23;20451;-65
2023/05/29 08:25:32;;;;;;;10.60;2.65;;;;;;;16.60;45.49;102389.34;6188728;23;20041;-65
2023/05/29 08:28:00;;;;;;;11.15;2.78;;;;;;;16.62;45.52;102397.25;6190462;23;20031;-66
2023/05/29 08:30:28;;;;;;;9.02;3.30;;;;;;;16.70;45.28;102407.88;6190154;23;20548;-65
2023/05/29 08:32:55;;;;;;;12.13;3.65;;;;;;;16.70;45.16;102404.31;6190047;23;20044;-65
2023/05/29 08:35:23;;;;;;;10.18;2.83;;;;;;;16.69;45.14;102400.78;6190190;23;20033;-65
2023/05/29 08:37:51;;;;;;;10.00;3.22;;;;;;;16.68;45.07;102396.41;6189803;23;20021;-65
2023/05/29 08:40:20;;;;;;;7.88;2.17;;;;;;;16.68;44.96;102409.13;6189937;23;20029;-66
2023/05/29 08:42:52;;;;;;;8.93;2.40;;;;;;;16.68;45.02;102404.53;6189690;23;20032;-65
2023/05/29 08:45:23;;;;;;;12.07;2.47;;;;;;;16.67;45.07;102400.16;6189766;23;20568;-64
2023/05/29 08:47:53;;;;;;;9.50;2.67;;;;;;;16.66;45.14;102401.22;6189792;23;20032;-65
2023/05/29 08:50:23;;;;;;;9.30;2.95;;;;;;;16.68;45.00;102403.72;6189119;23;20025;-63
2023/05/29 08:52:52;;;;;;;9.35;3.15;;;;;;;16.71;44.99;102416.84;6189282;23;20036;-67
2023/05/29 08:55:21;;;;;;;8.63;2.70;;;;;;;16.71;45.04;102408.69;6188007;23;20345;-66
2023/05/29 08:57:49;;;;;;;8.95;2.63;;;;;;;16.71;44.97;102412.22;6188706;23;20127;-67
2023/05/29 09:00:18;;;;;;;10.43;2.67;;;;;;;16.70;44.83;102407.88;6188690;23;20028;-66
2023/05/29 09:02:46;;;;;;;13.15;3.50;;;;;;;16.72;44.94;102411.19;6187991;23;20524;-65
2023/05/29 09:05:14;;;;;;;6.15;2.53;;;;;;;16.73;44.98;102417.44;6187964;23;20055;-66
2023/05/29 09:07:43;;;;;;;9.73;2.40;;;;;;;16.73;44.90;102407.41;6188786;23;20025;-65
2023/05/29 09:10:11;;;;;;;12.85;2.92;;;;;;;16.75;44.89;102415.34;6189555;23;20029;-64
2023/05/29 09:12:40;;;;;;;11.77;3.38;;;;;;;16.75;44.98;102418.88;6189492;23;20076;-66
2023/05/29 09:15:18;;;;;;;10.85;2.20;;;;;;;16.78;44.90;102414.88;6187018;23;20055;-64
2023/05/29 09:17:52;;;;;;;8.75;2.35;;;;;;;16.79;44.78;102411.13;6189075;23;20032;-61
2023/05/29 09:20:23;;;;;;;8.25;3.28;;;;;;;16.80;44.94;102416.31;6188586;23;20025;-64
2023/05/29 09:22:55;;;;;;;8.05;2.72;;;;;;;16.79;45.06;102420.09;6189233;23;20029;-65
2023/05/29 09:25:24;;;;;;;10.93;3.10;;;;;;;16.72;44.63;102392.19;6187555;23;20032;-64
2023/05/29 09:27:56;;;;;;;10.13;2.20;;;;;;;16.82;44.87;102410.66;6190824;23;20070;-64
2023/05/29 09:30:39;;;;;;;9.23;2.67;;;;;;;16.82;44.78;102408.78;6190454;23;20106;-65
2023/05/29 09:33:08;;;;;;;9.70;2.67;;;;;;;16.83;44.80;102409.59;6189736;23;20021;-62
2023/05/29 09:35:37;;;;;;;8.05;2.90;;;;;;;16.85;44.95;102412.94;6188976;23;20371;-64
2023/05/29 09:38:06;;;;;;;13.00;2.30;;;;;;;16.86;44.91;102404.56;6189238;23;20024;-63
2023/05/29 09:40:34;;;;;;;9.00;2.47;;;;;;;16.89;44.75;102403.28;6188857;23;20104;-65
2023/05/29 09:43:10;;;;;;;15.13;2.90;;;;;;;16.91;45.07;102415.56;6188412;23;20550;-64
2023/05/29 09:45:40;;;;;;;12.97;3.73;;;;;;;16.92;45.07;102406.38;6187561;23;20025;-65
2023/05/29 09:48:09;;;;;;;9.73;2.75;;;;;;;16.96;44.92;102414.06;6188563;23;20029;-64
2023/05/29 09:50:37;;;;;;;7.13;2.25;;;;;;;16.98;44.75;102409.25;6189312;23;20047;-67
2023/05/29 09:53:17;;;;;;;9.10;2.58;;;;;;;16.99;45.04;102405.47;6187303;23;20025;-65
2023/05/29 09:55:46;;;;;;;8.77;2.30;;;;;;;17.01;45.13;102408.78;6184625;23;20025;-66
2023/05/29 09:58:15;;;;;;;8.55;2.50;;;;;;;17.04;45.32;102406.44;6186294;23;20087;-64
2023/05/29 10:00:43;;;;;;;11.27;2.42;;;;;;;17.08;45.85;102412.25;6184807;23;20089;-65
2023/05/29 10:03:12;;;;;;;7.75;2.60;;;;;;;17.15;46.12;102410.28;6183608;23;20025;-65
2023/05/29 10:05:40;;;;;;;9.77;2.60;;;;;;;17.17;45.89;102424.47;6184079;23;20028;-64
2023/05/29 10:08:12;;;;;;;8.23;2.42;;;;;;;17.17;44.99;102422.59;6185206;23;20029;-64
2023/05/29 10:10:42;;;;;;;8.77;2.78;;;;;;;17.17;44.80;102410.91;6184485;23;20029;-64
2023/05/29 10:13:13;;;;;;;7.45;2.20;;;;;;;17.19;45.37;102408.78;6184916;23;20029;-64
2023/05/29 10:15:44;;;;;;;5.47;1.95;;;;;;;17.20;45.17;102394.13;6184748;23;20028;-64
2023/05/29 10:18:19;;;;;;;11.45;2.47;;;;;;;17.24;45.43;102398.88;6183963;23;20025;-64
2023/05/29 10:20:51;;;;;;;8.98;2.50;;;;;;;17.27;45.42;102396.78;6184999;23;20039;-64
2023/05/29 10:23:22;;;;;;;9.63;2.42;;;;;;;17.30;45.42;102399.03;6185420;23;20029;-66
2023/05/29 10:25:53;;;;;;;10.30;2.95;;;;;;;17.31;45.41;102403.41;6186725;23;20060;-65
2023/05/29 10:28:23;;;;;;;11.30;2.63;;;;;;;17.32;45.78;102405.91;6190330;23;20028;-66
2023/05/29 10:30:55;;;;;;;15.18;2.78;;;;;;;17.40;45.59;102396.56;6190065;23;20035;-62
2023/05/29 10:33:38;;;;;;;10.98;2.00;;;;;;;17.43;45.10;102396.09;6189862;23;20033;-65
2023/05/29 10:36:13;;;;;;;7.22;3.05;;;;;;;17.49;45.67;102398.72;6191250;23;20021;-64
2023/05/29 10:38:44;;;;;;;7.47;2.13;;;;;;;17.50;45.79;102392.25;6191799;23;20035;-65
2023/05/29 10:41:32;;;;;;;8.30;2.10;;;;;;;17.58;46.23;102385.66;6189937;23;20491;-66
2023/05/29 10:44:01;;;;;;;9.38;2.80;;;;;;;17.60;46.17;102388.13;6192068;23;20029;-64
2023/05/29 10:47:05;;;;;;;9.88;2.20;;;;;;;17.62;45.37;102391.47;6191829;23;20029;-66
2023/05/29 10:49:34;;;;;;;8.75;2.50;;;;;;;17.65;45.25;102394.53;6191916;23;20467;-66
2023/05/29 10:52:05;;;;;;;8.63;2.40;;;;;;;17.66;45.15;102393.50;6190484;23;20056;-64
2023/05/29 10:54:53;;;;;;;9.88;2.83;;;;;;;17.70;45.14;102385.72;6188966;23;20029;-63
2023/05/29 10:57:23;;;;;;;8.90;2.88;;;;;;;17.74;45.51;102386.91;6189261;23;20036;-62
2023/05/29 10:59:59;;;;;;;7.20;2.33;;;;;;;17.73;45.44;102383.38;6189935;23;20032;-63
2023/05/29 11:02:28;;;;;;;8.75;2.17;;;;;;;17.79;45.34;102387.88;6188690;23;20398;-64
2023/05/29 11:05:18;;;;;;;6.72;2.30;;;;;;;17.81;45.10;102390.38;6185294;23;20048;-64
2023/05/29 11:07:55;;;;;;;9.90;2.40;;;;;;;17.82;44.74;102390.13;6189230;23;20025;-64
2023/05/29 11:10:44;;;;;;;8.18;2.88;;;;;;;17.82;45.00;102375.72;6189390;23;20025;-73
2023/05/29 11:13:24;;;;;;;7.18;2.78;;;;;;;17.86;44.81;102375.00;6189699;23;20032;-65
2023/05/29 11:16:13;;;;;;;12.95;2.88;;;;;;;17.89;44.99;102377.25;6190620;23;20144;-64
2023/05/29 11:18:44;;;;;;;7.70;2.42;;;;;;;17.93;45.13;102372.19;6191327;23;20025;-65
2023/05/29 11:21:24;;;;;;;8.30;2.90;;;;;;;17.96;44.77;102371.72;6190652;23;20028;-66
2023/05/29 11:23:53;;;;;;;11.52;2.97;;;;;;;17.96;44.36;102363.56;6192429;23;20029;-66
2023/05/29 11:26:23;;;;;;;10.02;2.88;;;;;;;18.00;44.63;102369.34;6191517;23;20029;-67
2023/05/29 11:28:51;;;;;;;14.13;2.88;;;;;;;17.99;44.67;102364.97;6191694;23;20025;-65
2023/05/29 11:31:22;;;;;;;7.47;2.33;;;;;;;18.02;44.14;102370.78;6190332;23;20025;-67